createdAt,value
2023-03-27T00:02:23.135Z,6.48
2023-03-27T00:04:50.555Z,6.48
2023-03-27T00:07:19.904Z,6.50
2023-03-27T00:09:47.041Z,6.50
2023-03-27T00:12:14.303Z,6.50
2023-03-27T00:14:41.455Z,6.53
2023-03-27T00:17:09.316Z,6.49
2023-03-27T00:19:36.617Z,6.47
2023-03-27T00:22:03.801Z,6.45
2023-03-27T00:24:31.256Z,6.42
2023-03-27T00:26:58.385Z,6.39
2023-03-27T00:29:25.531Z,6.30
2023-03-27T00:31:52.635Z,6.38
2023-03-27T00:34:19.820Z,6.35
2023-03-27T00:36:51.059Z,6.30
2023-03-27T00:39:19.184Z,6.31
2023-03-27T00:41:47.273Z,6.28
2023-03-27T00:44:31.010Z,6.22
2023-03-27T00:46:58.259Z,6.10
2023-03-27T00:49:28.766Z,6.05
2023-03-27T00:51:58.906Z,6.00
2023-03-27T00:54:29.939Z,5.93
2023-03-27T00:57:01.772Z,5.89
2023-03-27T00:59:32.171Z,5.92
2023-03-27T01:02:01.572Z,5.81
2023-03-27T01:04:31.391Z,5.83
2023-03-27T01:07:00.165Z,5.72
2023-03-27T01:09:27.851Z,5.73
2023-03-27T01:12:26.300Z,5.74
2023-03-27T01:15:34.930Z,5.71
2023-03-27T01:18:22.231Z,5.65
2023-03-27T01:21:09.243Z,5.71
2023-03-27T01:24:27.887Z,5.73
2023-03-27T01:27:03.269Z,5.78
2023-03-27T01:29:30.477Z,5.63
2023-03-27T01:32:17.555Z,5.71
2023-03-27T01:35:02.531Z,5.80
2023-03-27T01:37:37.689Z,5.74
2023-03-27T01:40:16.588Z,5.68
2023-03-27T01:43:01.138Z,5.63
2023-03-27T01:45:50.872Z,5.66
2023-03-27T01:48:26.427Z,5.63
2023-03-27T01:50:59.321Z,5.58
2023-03-27T01:53:33.105Z,5.52
2023-03-27T01:56:02.993Z,5.60
2023-03-27T01:58:36.139Z,5.61
2023-03-27T02:01:05.391Z,5.56
2023-03-27T02:03:39.746Z,5.53
2023-03-27T02:06:13.316Z,5.50
2023-03-27T02:08:59.407Z,5.49
2023-03-27T02:11:34.304Z,5.46
2023-03-27T02:14:06.391Z,5.46
2023-03-27T02:16:41.250Z,5.39
2023-03-27T02:19:19.925Z,5.29
2023-03-27T02:21:49.809Z,5.19
2023-03-27T02:24:18.747Z,5.15
2023-03-27T02:26:52.574Z,5.04
2023-03-27T02:29:19.671Z,5.00
2023-03-27T02:31:46.813Z,4.95
2023-03-27T02:34:29.663Z,4.92
2023-03-27T02:37:17.529Z,4.96
2023-03-27T02:40:46.675Z,4.98
2023-03-27T02:43:43.960Z,4.93
2023-03-27T02:46:16.960Z,4.92
2023-03-27T02:48:54.964Z,4.93
2023-03-27T02:51:28.270Z,4.91
2023-03-27T02:54:06.610Z,4.87
2023-03-27T02:56:43.493Z,4.87
2023-03-27T02:59:27.138Z,4.86
2023-03-27T03:01:55.241Z,4.85
2023-03-27T03:04:29.945Z,4.74
2023-03-27T03:07:04.264Z,4.69
2023-03-27T03:09:31.769Z,4.70
2023-03-27T03:11:59.237Z,4.71
2023-03-27T03:14:31.601Z,4.73
2023-03-27T03:16:58.774Z,4.72
2023-03-27T03:19:25.864Z,4.71
2023-03-27T03:21:53.100Z,4.70
2023-03-27T03:24:22.142Z,4.66
2023-03-27T03:26:50.305Z,4.64
2023-03-27T03:29:21.544Z,4.70
2023-03-27T03:32:05.769Z,4.73
2023-03-27T03:34:33.453Z,4.73
2023-03-27T03:37:00.946Z,4.76
2023-03-27T03:39:31.110Z,4.76
2023-03-27T03:41:58.251Z,4.79
2023-03-27T03:44:25.382Z,4.84
2023-03-27T03:46:54.047Z,4.84
2023-03-27T03:49:22.075Z,4.84
2023-03-27T03:52:04.135Z,4.75
2023-03-27T03:54:33.519Z,4.87
2023-03-27T03:57:00.912Z,4.87
2023-03-27T03:59:28.521Z,4.83
2023-03-27T04:02:28.637Z,4.73
2023-03-27T04:05:08.821Z,4.80
2023-03-27T04:07:39.991Z,4.78
2023-03-27T04:10:27.668Z,4.74
2023-03-27T04:12:55.433Z,4.66
2023-03-27T04:15:28.802Z,4.57
2023-03-27T04:18:16.423Z,4.68
2023-03-27T04:20:49.521Z,4.77
2023-03-27T04:23:20.835Z,4.75
2023-03-27T04:25:48.565Z,4.71
2023-03-27T04:28:22.634Z,4.66
2023-03-27T04:30:59.137Z,4.65
2023-03-27T04:33:40.013Z,4.50
2023-03-27T04:36:22.520Z,4.47
2023-03-27T04:39:02.348Z,4.40
2023-03-27T04:41:32.639Z,4.37
2023-03-27T04:44:00.249Z,4.28
2023-03-27T04:46:28.410Z,4.20
2023-03-27T04:49:01.571Z,4.17
2023-03-27T04:51:44.313Z,4.11
2023-03-27T04:54:12.562Z,4.06
2023-03-27T04:56:45.678Z,4.03
2023-03-27T04:59:13.473Z,3.99
2023-03-27T05:01:42.014Z,4.01
2023-03-27T05:04:29.052Z,3.93
2023-03-27T05:07:10.116Z,3.91
2023-03-27T05:09:37.903Z,3.85
2023-03-27T05:12:06.725Z,3.91
2023-03-27T05:14:40.015Z,3.84
2023-03-27T05:17:16.427Z,3.80
2023-03-27T05:19:45.257Z,3.92
2023-03-27T05:22:13.809Z,3.92
2023-03-27T05:24:49.969Z,3.90
2023-03-27T05:27:17.485Z,3.95
2023-03-27T05:29:49.098Z,3.98
2023-03-27T05:32:17.649Z,3.93
2023-03-27T05:34:50.728Z,4.07
2023-03-27T05:37:19.220Z,4.16
2023-03-27T05:40:05.977Z,4.38
2023-03-27T05:42:33.270Z,4.48
2023-03-27T05:45:00.414Z,4.60
2023-03-27T05:47:28.432Z,4.79
2023-03-27T05:49:55.667Z,4.93
2023-03-27T05:52:23.143Z,4.98
2023-03-27T05:54:56.014Z,5.13
2023-03-27T05:57:23.215Z,5.25
2023-03-27T05:59:55.551Z,5.49
2023-03-27T06:02:25.312Z,5.68
2023-03-27T06:04:58.951Z,5.85
2023-03-27T06:07:30.261Z,6.09
2023-03-27T06:10:03.041Z,6.27
2023-03-27T06:12:34.903Z,6.54
2023-03-27T06:15:11.147Z,6.94
2023-03-27T06:17:48.031Z,7.05
2023-03-27T06:20:16.001Z,7.09
2023-03-27T06:22:53.062Z,7.21
2023-03-27T06:25:26.412Z,7.20
2023-03-27T06:27:53.999Z,7.28
2023-03-27T06:30:23.409Z,7.26
2023-03-27T06:33:10.465Z,7.33
2023-03-27T06:35:39.659Z,7.44
2023-03-27T06:38:15.533Z,7.64
2023-03-27T06:40:43.448Z,7.46
2023-03-27T06:43:11.294Z,7.74
2023-03-27T06:45:50.704Z,7.88
2023-03-27T06:48:37.858Z,7.95
2023-03-27T06:51:06.894Z,8.11
2023-03-27T06:53:37.322Z,8.11
2023-03-27T06:56:06.660Z,8.04
2023-03-27T06:58:54.206Z,8.12
2023-03-27T07:01:27.759Z,8.21
2023-03-27T07:04:13.456Z,8.22
2023-03-27T07:06:59.206Z,8.30
2023-03-27T07:09:31.456Z,8.22
2023-03-27T07:12:06.171Z,8.07
2023-03-27T07:14:35.493Z,8.00
2023-03-27T07:17:03.029Z,7.92
2023-03-27T07:19:46.697Z,8.03
2023-03-27T07:22:15.006Z,8.03
2023-03-27T07:24:42.403Z,8.08
2023-03-27T07:27:11.011Z,8.11
2023-03-27T07:29:38.765Z,8.34
2023-03-27T07:32:09.183Z,8.72
2023-03-27T07:34:57.018Z,9.01
2023-03-27T07:37:56.235Z,9.28
2023-03-27T07:40:46.186Z,9.47
2023-03-27T07:43:36.530Z,9.76
2023-03-27T07:46:06.675Z,9.83
2023-03-27T07:48:35.828Z,9.97
2023-03-27T07:51:13.241Z,10.06
2023-03-27T07:53:41.614Z,10.37
2023-03-27T07:56:21.911Z,10.34
2023-03-27T07:58:51.219Z,10.37
2023-03-27T08:01:21.495Z,10.61
2023-03-27T08:03:49.769Z,10.79
2023-03-27T08:06:19.320Z,10.94
2023-03-27T08:08:47.544Z,11.14
2023-03-27T08:11:27.407Z,11.28
2023-03-27T08:13:58.904Z,11.34
2023-03-27T08:16:29.696Z,11.38
2023-03-27T08:18:58.676Z,11.53
2023-03-27T08:21:27.084Z,11.78
2023-03-27T08:23:57.749Z,11.90
2023-03-27T08:26:33.821Z,11.88
2023-03-27T08:29:04.377Z,12.03
2023-03-27T08:31:33.158Z,11.99
2023-03-27T08:34:02.186Z,12.18
2023-03-27T08:36:39.391Z,12.22
2023-03-27T08:39:10.652Z,12.00
2023-03-27T08:42:03.626Z,12.29
2023-03-27T08:44:48.820Z,12.55
2023-03-27T08:47:52.088Z,12.63
2023-03-27T08:50:41.298Z,12.52
2023-03-27T08:53:31.330Z,12.73
2023-03-27T08:56:04.817Z,12.96
2023-03-27T08:58:43.729Z,12.95
2023-03-27T09:01:51.120Z,13.10
2023-03-27T09:04:44.168Z,13.47
2023-03-27T09:07:39.748Z,13.79
2023-03-27T09:10:43.630Z,13.74
2023-03-27T09:13:35.040Z,13.91
2023-03-27T09:16:20.798Z,14.15
2023-03-27T09:19:00.171Z,14.35
2023-03-27T09:21:50.646Z,14.65
2023-03-27T09:24:41.814Z,14.59
2023-03-27T09:27:33.925Z,14.71
2023-03-27T09:30:26.697Z,14.93
2023-03-27T09:33:14.387Z,15.12
2023-03-27T09:35:44.557Z,15.20
2023-03-27T09:38:27.114Z,15.23
2023-03-27T09:41:01.463Z,15.36
2023-03-27T09:43:53.866Z,15.24
2023-03-27T09:46:24.564Z,15.56
2023-03-27T09:49:19.195Z,15.85
2023-03-27T09:51:58.151Z,15.78
2023-03-27T09:54:56.259Z,15.92
2023-03-27T09:57:37.326Z,16.04
2023-03-27T10:00:28.059Z,16.20
2023-03-27T10:03:13.893Z,16.45
2023-03-27T10:05:47.053Z,16.35
2023-03-27T10:08:30.020Z,16.44
2023-03-27T10:11:08.020Z,16.42
2023-03-27T10:13:50.225Z,16.55
2023-03-27T10:16:22.664Z,16.73
2023-03-27T10:19:00.396Z,16.56
2023-03-27T10:21:34.398Z,16.81
2023-03-27T10:24:19.973Z,16.60
2023-03-27T10:27:20.112Z,16.93
2023-03-27T10:30:35.016Z,17.01
2023-03-27T10:33:33.895Z,17.23
2023-03-27T10:36:14.597Z,17.43
2023-03-27T10:38:43.487Z,17.73
2023-03-27T10:41:37.745Z,17.88
2023-03-27T10:44:16.714Z,17.82
2023-03-27T10:46:50.264Z,18.10
2023-03-27T10:49:28.696Z,18.23
2023-03-27T10:52:15.823Z,18.34
2023-03-27T10:55:13.488Z,18.26
2023-03-27T10:57:46.298Z,18.50
2023-03-27T11:00:20.582Z,18.39
2023-03-27T11:03:15.912Z,18.62
2023-03-27T11:05:48.421Z,18.51
2023-03-27T11:08:33.335Z,18.19
2023-03-27T11:11:36.883Z,18.34
2023-03-27T11:14:11.853Z,18.49
2023-03-27T11:16:44.300Z,18.60
2023-03-27T11:19:46.470Z,18.70
2023-03-27T11:22:47.976Z,18.48
2023-03-27T11:25:39.709Z,18.52
2023-03-27T11:28:27.032Z,18.95
2023-03-27T11:31:12.424Z,18.99
2023-03-27T11:33:54.348Z,19.35
2023-03-27T11:36:50.682Z,19.26
2023-03-27T11:39:49.731Z,19.26
2023-03-27T11:42:26.558Z,18.85
2023-03-27T11:44:54.440Z,19.04
2023-03-27T11:47:49.032Z,18.98
2023-03-27T11:50:33.718Z,18.92
2023-03-27T11:53:43.737Z,19.29
2023-03-27T11:56:32.654Z,19.40
2023-03-27T11:59:30.823Z,19.34
2023-03-27T12:02:27.840Z,19.26
2023-03-27T12:05:12.382Z,19.39
2023-03-27T12:08:07.620Z,19.43
2023-03-27T12:10:42.554Z,19.60
2023-03-27T12:13:42.421Z,19.45
2023-03-27T12:16:43.797Z,19.65
2023-03-27T12:19:28.429Z,19.99
2023-03-27T12:22:46.333Z,20.11
2023-03-27T12:25:52.075Z,20.00
2023-03-27T12:28:45.580Z,20.00
2023-03-27T12:31:36.001Z,20.25
2023-03-27T12:34:29.982Z,20.41
2023-03-27T12:36:59.879Z,20.28
2023-03-27T12:39:28.715Z,20.10
2023-03-27T12:42:13.217Z,20.29
2023-03-27T12:45:14.387Z,20.31
2023-03-27T12:48:11.697Z,20.18
2023-03-27T12:50:43.543Z,20.22
2023-03-27T12:53:40.036Z,20.06
2023-03-27T12:56:16.293Z,20.09
2023-03-27T12:58:47.187Z,20.25
2023-03-27T13:01:22.557Z,20.42
2023-03-27T13:03:55.571Z,20.13
2023-03-27T13:06:44.261Z,20.24
2023-03-27T13:09:33.243Z,20.11
2023-03-27T13:12:34.952Z,20.31
2023-03-27T13:15:18.042Z,20.23
2023-03-27T13:18:00.933Z,20.26
2023-03-27T13:20:59.315Z,20.51
2023-03-27T13:24:07.079Z,20.72
2023-03-27T13:26:52.298Z,20.47
2023-03-27T13:29:24.806Z,20.31
2023-03-27T13:32:34.651Z,20.33
2023-03-27T13:35:32.772Z,20.55
2023-03-27T13:38:00.585Z,20.63
2023-03-27T13:40:36.577Z,20.50
2023-03-27T13:43:21.597Z,20.56
2023-03-27T13:45:57.671Z,20.57
2023-03-27T13:49:04.647Z,20.29
2023-03-27T13:51:51.805Z,20.29
2023-03-27T13:55:10.646Z,20.42
2023-03-27T13:58:03.831Z,20.77
2023-03-27T14:00:48.878Z,20.84
2023-03-27T14:03:41.906Z,20.63
2023-03-27T14:06:29.889Z,20.83
2023-03-27T14:09:13.276Z,20.67
2023-03-27T14:12:40.994Z,20.84
2023-03-27T14:15:39.609Z,21.00
2023-03-27T14:18:43.087Z,20.82
2023-03-27T14:21:24.547Z,19.84
2023-03-27T14:24:38.288Z,19.36
2023-03-27T14:27:18.704Z,19.51
2023-03-27T14:29:49.402Z,20.25
2023-03-27T14:32:18.101Z,20.75
2023-03-27T14:34:54.529Z,21.38
2023-03-27T14:37:39.278Z,22.09
2023-03-27T14:40:23.099Z,22.50
2023-03-27T14:42:55.589Z,21.72
2023-03-27T14:45:27.588Z,22.18
2023-03-27T14:48:00.009Z,23.10
2023-03-27T14:50:34.458Z,24.47
2023-03-27T14:53:08.860Z,25.24
2023-03-27T14:56:04.402Z,23.96
2023-03-27T14:59:08.647Z,22.56
2023-03-27T15:01:46.923Z,20.87
2023-03-27T15:04:14.816Z,20.72
2023-03-27T15:06:44.332Z,20.44
2023-03-27T15:09:25.589Z,20.22
2023-03-27T15:11:56.308Z,19.39
2023-03-27T15:14:30.494Z,18.88
2023-03-27T15:17:03.106Z,18.28
2023-03-27T15:19:43.228Z,17.58
2023-03-27T15:22:33.700Z,17.30
2023-03-27T15:25:17.600Z,17.26
2023-03-27T15:27:52.735Z,19.15
2023-03-27T15:30:40.592Z,20.76
2023-03-27T15:33:20.200Z,23.38
2023-03-27T15:35:53.212Z,23.92
2023-03-27T15:38:29.478Z,25.43
2023-03-27T15:41:28.513Z,22.91
2023-03-27T15:44:09.662Z,21.39
2023-03-27T15:46:57.903Z,19.95
2023-03-27T15:49:32.258Z,19.52
2023-03-27T15:52:13.645Z,19.45
2023-03-27T15:54:54.141Z,19.01
2023-03-27T15:57:21.521Z,18.44
2023-03-27T15:59:51.886Z,17.83
2023-03-27T16:02:24.817Z,17.42
2023-03-27T16:04:55.444Z,17.03
2023-03-27T16:07:29.997Z,16.63
2023-03-27T16:10:05.075Z,16.53
2023-03-27T16:12:47.932Z,16.23
2023-03-27T16:15:45.127Z,16.12
2023-03-27T16:18:24.207Z,16.16
2023-03-27T16:20:51.370Z,15.86
2023-03-27T16:23:18.500Z,16.01
2023-03-27T16:25:45.768Z,15.92
2023-03-27T16:28:14.122Z,15.78
2023-03-27T16:30:42.046Z,15.80
2023-03-27T16:33:16.650Z,15.72
2023-03-27T16:35:45.258Z,15.66
2023-03-27T16:38:13.883Z,15.65
2023-03-27T16:40:41.914Z,15.60
2023-03-27T16:43:09.128Z,15.78
2023-03-27T16:45:37.532Z,16.38
2023-03-27T16:48:05.581Z,16.58
2023-03-27T16:50:32.724Z,16.49
2023-03-27T16:52:59.812Z,16.27
2023-03-27T16:55:27.015Z,16.46
2023-03-27T16:57:55.041Z,16.39
2023-03-27T17:00:22.863Z,15.93
2023-03-27T17:02:50.150Z,15.63
2023-03-27T17:05:17.629Z,15.34
2023-03-27T17:07:46.731Z,15.25
2023-03-27T17:10:14.315Z,15.11
2023-03-27T17:12:41.703Z,14.82
2023-03-27T17:15:09.302Z,14.57
2023-03-27T17:17:36.470Z,14.29
2023-03-27T17:20:06.336Z,14.02
2023-03-27T17:22:34.324Z,13.82
2023-03-27T17:25:03.475Z,13.72
2023-03-27T17:27:30.757Z,13.55
2023-03-27T17:29:58.174Z,13.36
2023-03-27T17:32:26.569Z,13.15
2023-03-27T17:34:54.000Z,12.94
2023-03-27T17:37:22.046Z,12.83
2023-03-27T17:39:49.443Z,12.62
2023-03-27T17:42:16.693Z,12.46
2023-03-27T17:44:45.045Z,12.39
2023-03-27T17:47:13.442Z,12.22
2023-03-27T17:49:42.985Z,12.18
2023-03-27T17:52:11.872Z,12.11
2023-03-27T17:54:39.080Z,11.92
2023-03-27T17:57:06.575Z,11.87
2023-03-27T17:59:34.118Z,11.78
2023-03-27T18:02:01.406Z,11.76
2023-03-27T18:04:29.199Z,11.59
2023-03-27T18:06:56.677Z,11.37
2023-03-27T18:09:25.027Z,11.28
2023-03-27T18:11:52.218Z,11.22
2023-03-27T18:14:19.438Z,11.19
2023-03-27T18:16:46.622Z,11.04
2023-03-27T18:19:14.526Z,11.08
2023-03-27T18:21:42.102Z,11.15
2023-03-27T18:24:09.396Z,10.85
2023-03-27T18:26:36.831Z,10.72
2023-03-27T18:29:04.978Z,10.66
2023-03-27T18:31:32.812Z,10.46
2023-03-27T18:33:59.935Z,10.50
2023-03-27T18:36:27.262Z,10.39
2023-03-27T18:38:54.585Z,10.34
2023-03-27T18:41:21.811Z,10.34
2023-03-27T18:43:48.960Z,10.38
2023-03-27T18:46:18.746Z,10.36
2023-03-27T18:48:49.055Z,10.35
2023-03-27T18:51:19.444Z,10.38
2023-03-27T18:53:46.786Z,10.45
2023-03-27T18:56:13.938Z,10.41
2023-03-27T18:58:41.366Z,10.48
2023-03-27T19:01:09.585Z,10.51
2023-03-27T19:03:39.020Z,10.43
2023-03-27T19:06:07.867Z,10.50
2023-03-27T19:08:37.930Z,10.40
2023-03-27T19:11:06.216Z,10.26
2023-03-27T19:13:51.765Z,10.17
2023-03-27T19:16:30.574Z,10.36
2023-03-27T19:19:36.334Z,10.40
2023-03-27T19:22:21.914Z,10.00
2023-03-27T19:25:00.401Z,9.86
2023-03-27T19:27:28.590Z,9.80
2023-03-27T19:30:08.450Z,9.68
2023-03-27T19:32:35.647Z,9.72
2023-03-27T19:35:03.027Z,9.69
2023-03-27T19:37:31.237Z,9.72
2023-03-27T19:39:59.569Z,9.83
2023-03-27T19:42:28.562Z,9.88
2023-03-27T19:44:55.893Z,9.96
2023-03-27T19:47:23.007Z,9.93
2023-03-27T19:49:50.111Z,10.09
2023-03-27T19:52:33.237Z,10.08
2023-03-27T19:55:00.601Z,10.01
2023-03-27T19:57:27.750Z,10.07
2023-03-27T19:59:54.966Z,10.12
2023-03-27T20:02:22.131Z,10.08
2023-03-27T20:04:49.685Z,10.06
2023-03-27T20:07:16.807Z,10.08
2023-03-27T20:09:43.916Z,10.06
2023-03-27T20:12:12.253Z,9.92
2023-03-27T20:14:39.390Z,9.80
2023-03-27T20:17:12.218Z,9.79
2023-03-27T20:19:48.983Z,9.74
2023-03-27T20:22:20.557Z,9.54
2023-03-27T20:24:48.622Z,9.63
2023-03-27T20:27:19.613Z,9.64
2023-03-27T20:29:49.775Z,9.60
2023-03-27T20:32:17.052Z,9.61
2023-03-27T20:34:46.256Z,9.55
2023-03-27T20:37:13.924Z,9.62
2023-03-27T20:39:49.036Z,9.71
2023-03-27T20:42:22.804Z,9.83
2023-03-27T20:44:58.140Z,10.02
2023-03-27T20:47:25.360Z,10.05
2023-03-27T20:49:52.541Z,10.06
2023-03-27T20:52:22.556Z,10.03
2023-03-27T20:54:49.659Z,10.00
2023-03-27T20:57:18.399Z,9.98
2023-03-27T20:59:47.534Z,10.11
2023-03-27T21:02:17.780Z,10.31
2023-03-27T21:04:46.492Z,10.37
2023-03-27T21:07:15.694Z,10.41
2023-03-27T21:09:45.237Z,10.51
2023-03-27T21:12:12.432Z,10.63
2023-03-27T21:14:39.662Z,10.69
2023-03-27T21:17:07.032Z,10.54
2023-03-27T21:19:34.162Z,10.47
2023-03-27T21:22:01.236Z,10.45
2023-03-27T21:24:28.401Z,10.41
2023-03-27T21:26:55.722Z,10.45
2023-03-27T21:29:25.085Z,10.40
2023-03-27T21:31:52.566Z,10.38
2023-03-27T21:34:19.818Z,10.42
2023-03-27T21:36:47.036Z,10.43
2023-03-27T21:39:14.170Z,10.45
2023-03-27T21:41:41.402Z,10.41
2023-03-27T21:44:08.480Z,10.57
2023-03-27T21:46:35.969Z,10.51
2023-03-27T21:49:03.257Z,10.56
2023-03-27T21:51:30.380Z,10.48
2023-03-27T21:53:57.521Z,10.51
2023-03-27T21:56:24.581Z,10.45
2023-03-27T21:58:51.670Z,10.44
2023-03-27T22:01:18.960Z,10.42
2023-03-27T22:03:46.176Z,10.35
2023-03-27T22:06:13.731Z,10.32
2023-03-27T22:08:42.943Z,10.27
2023-03-27T22:11:11.620Z,10.19
2023-03-27T22:13:39.368Z,10.25
2023-03-27T22:16:09.282Z,10.13
2023-03-27T22:18:36.476Z,10.02
2023-03-27T22:21:19.594Z,9.90
2023-03-27T22:23:46.835Z,9.82
2023-03-27T22:26:14.027Z,9.76
2023-03-27T22:28:41.180Z,9.68
2023-03-27T22:31:08.344Z,9.67
2023-03-27T22:33:36.859Z,9.62
2023-03-27T22:36:05.654Z,9.64
2023-03-27T22:38:33.297Z,9.75
2023-03-27T22:41:00.886Z,9.74
2023-03-27T22:43:29.303Z,9.67
2023-03-27T22:45:57.177Z,9.62
2023-03-27T22:48:24.356Z,9.52
2023-03-27T22:50:55.325Z,9.44
2023-03-27T22:53:23.853Z,9.37
2023-03-27T22:55:56.460Z,9.27
2023-03-27T22:58:24.381Z,9.18
2023-03-27T23:00:53.172Z,9.06
2023-03-27T23:03:21.315Z,8.97
2023-03-27T23:05:49.988Z,8.82
2023-03-27T23:08:19.221Z,8.53
2023-03-27T23:10:46.633Z,8.34
2023-03-27T23:13:14.365Z,8.13
2023-03-27T23:15:41.445Z,7.93
2023-03-27T23:18:08.532Z,7.70
2023-03-27T23:20:35.688Z,7.60
2023-03-27T23:23:02.781Z,7.41
2023-03-27T23:25:29.878Z,7.26
2023-03-27T23:27:57.355Z,7.21
2023-03-27T23:30:24.489Z,7.34
2023-03-27T23:32:51.574Z,7.30
2023-03-27T23:35:18.822Z,7.07
2023-03-27T23:37:48.158Z,6.78
2023-03-27T23:40:15.690Z,6.54
2023-03-27T23:42:42.817Z,6.50
2023-03-27T23:45:10.346Z,6.55
2023-03-27T23:47:39.074Z,6.48
2023-03-27T23:50:06.749Z,6.44
2023-03-27T23:52:33.807Z,6.42
2023-03-27T23:55:01.068Z,6.46
2023-03-27T23:57:28.144Z,6.40
2023-03-27T23:59:55.348Z,6.37
